createdAt,value
2018-05-04T00:01:58.966Z,19.21
2018-05-04T00:04:27.174Z,19.18
2018-05-04T00:06:55.359Z,19.08
2018-05-04T00:09:23.578Z,19.04
2018-05-04T00:11:52.509Z,19.09
2018-05-04T00:14:20.692Z,19.02
2018-05-04T00:16:48.875Z,19.10
2018-05-04T00:19:17.093Z,19.00
2018-05-04T00:21:46.038Z,18.95
2018-05-04T00:24:14.214Z,18.90
2018-05-04T00:26:42.416Z,19.03
2018-05-04T00:29:10.621Z,18.93
2018-05-04T00:31:38.809Z,18.88
2018-05-04T00:34:06.998Z,18.87
2018-05-04T00:36:35.185Z,18.92
2018-05-04T00:39:03.368Z,18.84
2018-05-04T00:41:31.561Z,18.75
2018-05-04T00:43:59.745Z,18.73
2018-05-04T00:46:27.924Z,18.80
2018-05-04T00:48:56.869Z,18.80
2018-05-04T00:51:25.058Z,18.78
2018-05-04T00:54:11.152Z,18.74
2018-05-04T00:56:39.326Z,18.68
2018-05-04T00:59:07.493Z,18.64
2018-05-04T01:01:35.679Z,18.60
2018-05-04T01:04:03.847Z,18.56
2018-05-04T01:06:32.014Z,18.53
2018-05-04T01:09:00.242Z,18.46
2018-05-04T01:11:29.183Z,18.47
2018-05-04T01:13:57.370Z,18.49
2018-05-04T01:16:25.543Z,18.52
2018-05-04T01:18:53.727Z,18.57
2018-05-04T01:21:21.912Z,18.52
2018-05-04T01:23:50.858Z,18.63
2018-05-04T01:26:19.021Z,18.56
2018-05-04T01:28:47.226Z,18.47
2018-05-04T01:31:15.404Z,18.45
2018-05-04T01:33:43.596Z,18.42
2018-05-04T01:36:11.787Z,18.41
2018-05-04T01:38:40.756Z,18.30
2018-05-04T01:41:08.934Z,18.23
2018-05-04T01:43:37.914Z,18.35
2018-05-04T01:46:06.087Z,18.33
2018-05-04T01:48:34.263Z,18.32
2018-05-04T01:51:02.458Z,18.28
2018-05-04T01:53:30.653Z,18.29
2018-05-04T01:55:59.616Z,18.30
2018-05-04T01:58:27.794Z,18.29
2018-05-04T02:00:55.968Z,18.34
2018-05-04T02:03:24.151Z,18.39
2018-05-04T02:05:52.337Z,18.43
2018-05-04T02:08:20.514Z,18.40
2018-05-04T02:10:48.685Z,18.43
2018-05-04T02:13:16.876Z,18.46
2018-05-04T02:15:45.814Z,18.44
2018-05-04T02:18:13.991Z,18.48
2018-05-04T02:20:42.165Z,18.50
2018-05-04T02:23:10.340Z,18.51
2018-05-04T02:25:38.522Z,18.48
2018-05-04T02:28:06.761Z,18.48
2018-05-04T02:30:34.894Z,18.49
2018-05-04T02:33:03.074Z,18.55
2018-05-04T02:35:31.258Z,18.51
2018-05-04T02:38:00.233Z,18.51
2018-05-04T02:40:28.433Z,18.55
2018-05-04T02:42:57.387Z,18.55
2018-05-04T02:45:25.571Z,18.50
2018-05-04T02:47:53.750Z,18.48
2018-05-04T02:50:21.972Z,18.52
2018-05-04T02:52:50.227Z,18.58
2018-05-04T02:55:19.284Z,18.55
2018-05-04T02:57:48.165Z,18.51
2018-05-04T03:00:16.375Z,18.45
2018-05-04T03:02:44.581Z,18.53
2018-05-04T03:05:12.753Z,18.46
2018-05-04T03:07:40.950Z,18.48
2018-05-04T03:10:09.131Z,18.51
2018-05-04T03:12:37.309Z,18.43
2018-05-04T03:15:05.491Z,18.50
2018-05-04T03:17:34.589Z,18.49
2018-05-04T03:20:02.765Z,18.54
2018-05-04T03:22:30.954Z,18.57
2018-05-04T03:24:59.154Z,18.54
2018-05-04T03:27:28.132Z,18.55
2018-05-04T03:29:56.311Z,18.52
2018-05-04T03:32:24.508Z,18.53
2018-05-04T03:34:53.448Z,18.53
2018-05-04T03:37:21.625Z,18.52
2018-05-04T03:39:49.796Z,18.50
2018-05-04T03:42:17.977Z,18.50
2018-05-04T03:44:46.151Z,18.51
2018-05-04T03:47:14.343Z,18.51
2018-05-04T03:49:42.552Z,18.51
2018-05-04T03:52:10.727Z,18.53
2018-05-04T03:54:38.903Z,18.55
2018-05-04T03:57:24.799Z,18.54
2018-05-04T04:00:11.026Z,18.55
2018-05-04T04:05:47.459Z,18.60
2018-05-04T04:08:16.406Z,18.61
2018-05-04T04:10:44.582Z,18.61
2018-05-04T04:13:12.765Z,18.63
2018-05-04T04:15:40.942Z,18.66
2018-05-04T04:18:09.154Z,18.70
2018-05-04T04:20:38.104Z,18.74
2018-05-04T04:23:06.284Z,18.75
2018-05-04T04:25:34.475Z,18.75
2018-05-04T04:28:02.650Z,18.74
2018-05-04T04:30:30.829Z,18.76
2018-05-04T04:32:59.004Z,18.77
2018-05-04T04:35:27.181Z,18.76
2018-05-04T04:37:55.360Z,18.73
2018-05-04T04:40:24.353Z,18.77
2018-05-04T04:42:52.539Z,18.76
2018-05-04T04:45:21.486Z,18.82
2018-05-04T04:47:49.732Z,18.66
2018-05-04T04:50:17.904Z,18.68
2018-05-04T04:52:46.375Z,18.62
2018-05-04T04:55:15.282Z,18.60
2018-05-04T04:57:43.449Z,18.68
2018-05-04T05:00:11.617Z,18.73
2018-05-04T05:02:40.555Z,18.68
2018-05-04T05:05:08.748Z,18.66
2018-05-04T05:07:36.939Z,18.70
2018-05-04T05:10:05.877Z,18.75
2018-05-04T05:12:34.065Z,18.81
2018-05-04T05:15:02.256Z,18.82
2018-05-04T05:17:30.434Z,18.86
2018-05-04T05:19:58.661Z,18.87
2018-05-04T05:22:26.837Z,18.92
2018-05-04T05:24:55.026Z,18.93
2018-05-04T05:27:23.238Z,18.94
2018-05-04T05:29:51.443Z,18.94
2018-05-04T05:32:20.421Z,19.00
2018-05-04T05:34:48.609Z,19.09
2018-05-04T05:37:17.560Z,19.13
2018-05-04T05:39:45.748Z,19.15
2018-05-04T05:42:13.936Z,19.23
2018-05-04T05:44:42.118Z,19.18
2018-05-04T05:47:11.066Z,19.29
2018-05-04T05:49:39.237Z,19.24
2018-05-04T05:52:07.458Z,19.32
2018-05-04T05:54:36.496Z,19.39
2018-05-04T05:57:04.614Z,19.27
2018-05-04T05:59:32.815Z,19.24
2018-05-04T06:02:01.763Z,19.16
2018-05-04T06:04:29.989Z,19.11
2018-05-04T06:06:58.938Z,19.01
2018-05-04T06:09:27.286Z,18.97
2018-05-04T06:11:55.333Z,19.01
2018-05-04T06:14:23.511Z,19.01
2018-05-04T06:16:51.705Z,19.06
2018-05-04T06:19:19.910Z,19.04
2018-05-04T06:21:48.085Z,19.06
2018-05-04T06:24:16.272Z,19.14
2018-05-04T06:26:44.464Z,19.10
2018-05-04T06:29:13.447Z,19.07
2018-05-04T06:31:41.622Z,19.13
2018-05-04T06:34:09.799Z,19.07
2018-05-04T06:36:38.001Z,19.10
2018-05-04T06:39:07.042Z,19.15
2018-05-04T06:41:35.212Z,19.15
2018-05-04T06:44:03.386Z,19.17
2018-05-04T06:46:31.879Z,19.20
2018-05-04T06:49:00.061Z,19.25
2018-05-04T06:51:28.240Z,19.20
2018-05-04T06:53:56.417Z,19.20
2018-05-04T06:56:24.597Z,19.20
2018-05-04T06:58:53.552Z,19.22
2018-05-04T07:01:21.737Z,19.22
2018-05-04T07:03:49.915Z,19.18
2018-05-04T07:06:18.109Z,19.22
2018-05-04T07:08:46.293Z,19.29
2018-05-04T07:11:15.241Z,19.30
2018-05-04T07:13:43.422Z,19.21
2018-05-04T07:16:11.598Z,19.22
2018-05-04T07:18:39.795Z,19.21
2018-05-04T07:21:07.985Z,19.27
2018-05-04T07:23:36.922Z,19.27
2018-05-04T07:26:05.101Z,19.27
2018-05-04T07:28:33.276Z,19.32
2018-05-04T07:31:01.553Z,19.34
2018-05-04T07:33:32.900Z,19.49
2018-05-04T07:36:01.824Z,19.47
2018-05-04T07:38:30.490Z,19.42
2018-05-04T07:41:01.482Z,19.44
2018-05-04T07:43:30.826Z,19.36
2018-05-04T07:46:00.636Z,19.36
2018-05-04T07:48:30.138Z,19.43
2018-05-04T07:50:59.923Z,19.40
2018-05-04T07:53:28.376Z,19.45
2018-05-04T07:56:01.740Z,19.47
2018-05-04T07:58:30.312Z,19.56
2018-05-04T08:01:02.666Z,19.51
2018-05-04T08:03:30.839Z,19.47
2018-05-04T08:05:59.224Z,19.49
2018-05-04T08:08:27.600Z,19.55
2018-05-04T08:10:59.217Z,19.61
2018-05-04T08:13:27.400Z,19.62
2018-05-04T08:16:02.304Z,19.65
2018-05-04T08:18:30.485Z,19.64
2018-05-04T08:21:00.463Z,19.65
2018-05-04T08:23:28.651Z,19.64
2018-05-04T08:26:01.305Z,19.69
2018-05-04T08:28:29.495Z,19.64
2018-05-04T08:31:01.422Z,19.70
2018-05-04T08:33:30.396Z,19.76
2018-05-04T08:36:03.629Z,19.73
2018-05-04T08:38:32.079Z,19.78
2018-05-04T08:41:00.662Z,19.85
2018-05-04T08:43:32.467Z,19.86
2018-05-04T08:46:04.965Z,20.06
2018-05-04T08:48:36.714Z,20.12
2018-05-04T08:51:05.246Z,20.17
2018-05-04T08:53:37.820Z,20.16
2018-05-04T08:56:06.826Z,20.29
2018-05-04T08:58:40.233Z,20.30
2018-05-04T09:01:08.427Z,20.39
2018-05-04T09:03:38.952Z,20.43
2018-05-04T09:06:07.136Z,20.56
2018-05-04T09:08:40.541Z,20.79
2018-05-04T09:11:09.427Z,20.87
2018-05-04T09:13:40.333Z,20.98
2018-05-04T09:16:08.517Z,20.92
2018-05-04T09:18:42.240Z,20.84
2018-05-04T09:21:10.669Z,20.72
2018-05-04T09:23:39.934Z,20.69
2018-05-04T09:26:10.977Z,20.60
2018-05-04T09:28:42.797Z,20.50
2018-05-04T09:31:14.402Z,20.38
2018-05-04T09:33:42.973Z,20.30
2018-05-04T09:36:13.922Z,20.34
2018-05-04T09:38:42.390Z,20.39
2018-05-04T09:41:12.504Z,20.43
2018-05-04T09:43:41.784Z,20.53
2018-05-04T09:46:10.193Z,20.68
2018-05-04T09:48:39.417Z,20.93
2018-05-04T09:51:10.974Z,21.19
2018-05-04T09:53:42.990Z,21.45
2018-05-04T09:56:12.745Z,21.68
2018-05-04T09:58:40.943Z,21.69
2018-05-04T10:01:09.903Z,21.60
2018-05-04T10:03:38.145Z,21.54
2018-05-04T10:06:06.338Z,21.40
2018-05-04T10:08:34.586Z,21.24
2018-05-04T10:11:06.947Z,21.09
2018-05-04T10:13:35.909Z,20.98
2018-05-04T10:16:04.431Z,20.80
2018-05-04T10:18:32.577Z,20.73
2018-05-04T10:21:01.532Z,20.70
2018-05-04T10:23:29.710Z,20.80
2018-05-04T10:25:57.893Z,20.96
2018-05-04T10:28:30.396Z,21.21
2018-05-04T10:30:59.350Z,21.57
2018-05-04T10:33:30.765Z,21.81
2018-05-04T10:35:58.947Z,22.16
2018-05-04T10:38:27.341Z,22.41
2018-05-04T10:40:55.525Z,22.39
2018-05-04T10:43:26.151Z,22.80
2018-05-04T10:45:54.542Z,23.54
2018-05-04T10:48:22.762Z,24.36
2018-05-04T10:50:51.719Z,25.18
2018-05-04T10:53:20.119Z,25.36
2018-05-04T10:55:48.298Z,25.06
2018-05-04T10:58:17.269Z,24.66
2018-05-04T11:00:45.442Z,24.50
2018-05-04T11:03:13.631Z,24.74
2018-05-04T11:05:41.812Z,25.01
2018-05-04T11:08:09.986Z,25.02
2018-05-04T11:10:38.163Z,25.09
2018-05-04T11:13:06.340Z,25.41
2018-05-04T11:15:34.531Z,26.31
2018-05-04T11:18:03.481Z,27.42
2018-05-04T11:20:31.662Z,28.20
2018-05-04T11:22:59.857Z,29.19
2018-05-04T11:25:28.855Z,30.28
2018-05-04T11:27:57.810Z,30.88
2018-05-04T11:30:25.994Z,31.45
2018-05-04T11:32:54.181Z,31.77
2018-05-04T11:35:22.358Z,32.09
2018-05-04T11:37:50.536Z,32.71
2018-05-04T11:40:18.751Z,33.25
2018-05-04T11:42:46.939Z,33.33
2018-05-04T11:45:15.121Z,33.82
2018-05-04T11:47:43.302Z,34.14
2018-05-04T11:50:11.482Z,34.23
2018-05-04T11:52:39.656Z,33.66
2018-05-04T11:55:07.863Z,33.62
2018-05-04T11:57:36.047Z,33.92
2018-05-04T12:00:04.989Z,34.11
2018-05-04T12:02:33.266Z,34.01
2018-05-04T12:05:01.373Z,33.17
2018-05-04T12:07:29.558Z,32.28
2018-05-04T12:09:58.502Z,31.84
2018-05-04T12:12:26.717Z,31.81
2018-05-04T12:14:54.903Z,32.29
2018-05-04T12:17:23.883Z,32.85
2018-05-04T12:19:52.532Z,33.97
2018-05-04T12:22:20.717Z,34.89
2018-05-04T12:24:48.899Z,35.14
2018-05-04T12:27:17.069Z,36.07
2018-05-04T12:29:45.273Z,36.12
2018-05-04T12:32:14.320Z,36.49
2018-05-04T12:34:42.501Z,36.20
2018-05-04T12:37:10.773Z,35.93
2018-05-04T12:39:38.898Z,35.07
2018-05-04T12:42:07.848Z,34.99
2018-05-04T12:44:36.026Z,34.99
2018-05-04T12:47:04.288Z,34.62
2018-05-04T12:49:33.188Z,34.26
2018-05-04T12:52:01.381Z,33.07
2018-05-04T12:54:29.553Z,32.06
2018-05-04T12:56:57.745Z,31.06
2018-05-04T12:59:27.434Z,30.31
2018-05-04T13:01:55.616Z,29.69
2018-05-04T13:04:23.834Z,29.23
2018-05-04T13:06:52.768Z,28.78
2018-05-04T13:09:20.943Z,28.25
2018-05-04T13:11:49.140Z,27.81
2018-05-04T13:14:17.341Z,27.50
2018-05-04T13:16:46.289Z,27.26
2018-05-04T13:19:14.484Z,27.33
2018-05-04T13:21:42.684Z,27.36
2018-05-04T13:24:11.628Z,27.32
2018-05-04T13:26:39.804Z,27.46
2018-05-04T13:29:07.978Z,27.71
2018-05-04T13:31:36.153Z,27.90
2018-05-04T13:34:04.333Z,27.91
2018-05-04T13:36:32.525Z,27.84
2018-05-04T13:39:00.748Z,27.81
2018-05-04T13:41:29.688Z,28.28
2018-05-04T13:43:57.879Z,28.86
2018-05-04T13:46:26.840Z,30.10
2018-05-04T13:48:55.018Z,31.95
2018-05-04T13:51:23.295Z,31.69
2018-05-04T13:53:52.191Z,30.62
2018-05-04T13:56:20.413Z,29.30
2018-05-04T13:58:48.537Z,28.29
2018-05-04T14:01:16.751Z,27.79
2018-05-04T14:03:45.778Z,27.34
2018-05-04T14:06:13.916Z,26.89
2018-05-04T14:08:42.856Z,26.47
2018-05-04T14:11:11.184Z,26.19
2018-05-04T14:13:39.404Z,25.98
2018-05-04T14:16:07.581Z,25.73
2018-05-04T14:18:35.768Z,25.56
2018-05-04T14:21:03.942Z,25.39
2018-05-04T14:23:33.628Z,25.30
2018-05-04T14:26:01.802Z,25.15
2018-05-04T14:28:29.979Z,24.98
2018-05-04T14:30:58.171Z,24.84
2018-05-04T14:33:26.353Z,24.75
2018-05-04T14:35:54.546Z,24.57
2018-05-04T14:38:22.733Z,24.51
2018-05-04T14:40:50.909Z,24.52
2018-05-04T14:43:19.090Z,24.50
2018-05-04T14:45:48.042Z,24.45
2018-05-04T14:48:16.232Z,24.52
2018-05-04T14:50:44.431Z,24.49
2018-05-04T14:53:13.390Z,24.46
2018-05-04T14:55:41.595Z,24.50
2018-05-04T14:58:09.784Z,24.47
2018-05-04T15:00:38.766Z,24.60
2018-05-04T15:03:06.947Z,24.47
2018-05-04T15:05:35.893Z,24.47
2018-05-04T15:08:04.077Z,24.46
2018-05-04T15:10:32.263Z,24.39
2018-05-04T15:13:00.441Z,24.35
2018-05-04T15:15:28.624Z,24.40
2018-05-04T15:17:56.819Z,24.31
2018-05-04T15:20:25.788Z,24.03
2018-05-04T15:22:53.975Z,24.07
2018-05-04T15:25:22.158Z,24.19
2018-05-04T15:27:51.097Z,24.38
2018-05-04T15:30:19.293Z,24.61
2018-05-04T15:32:47.479Z,24.96
2018-05-04T15:35:15.672Z,25.39
2018-05-04T15:37:44.630Z,25.64
2018-05-04T15:40:12.813Z,26.01
2018-05-04T15:42:41.001Z,26.34
2018-05-04T15:45:09.168Z,26.65
2018-05-04T15:47:37.364Z,27.00
2018-05-04T15:50:11.817Z,27.16
2018-05-04T15:52:40.044Z,27.09
2018-05-04T15:55:08.236Z,26.93
2018-05-04T15:57:37.188Z,26.74
2018-05-04T16:00:05.367Z,26.50
2018-05-04T16:02:33.553Z,26.17
2018-05-04T16:05:01.731Z,25.88
2018-05-04T16:07:29.913Z,25.64
2018-05-04T16:09:58.098Z,25.36
2018-05-04T16:12:27.049Z,25.14
2018-05-04T16:14:55.230Z,24.96
2018-05-04T16:17:23.419Z,24.78
2018-05-04T16:19:51.597Z,24.65
2018-05-04T16:22:19.880Z,24.47
2018-05-04T16:24:48.034Z,24.29
2018-05-04T16:27:16.223Z,24.26
2018-05-04T16:29:44.418Z,24.20
2018-05-04T16:32:13.365Z,24.11
2018-05-04T16:34:41.650Z,24.00
2018-05-04T16:37:10.597Z,23.84
2018-05-04T16:39:39.578Z,23.80
2018-05-04T16:42:08.530Z,23.67
2018-05-04T16:44:36.713Z,23.64
2018-05-04T16:47:10.373Z,23.54
2018-05-04T16:49:38.563Z,23.51
2018-05-04T16:52:06.737Z,23.49
2018-05-04T16:54:34.911Z,23.41
2018-05-04T16:57:03.124Z,23.31
2018-05-04T16:59:31.331Z,23.12
2018-05-04T17:02:00.277Z,23.03
2018-05-04T17:04:28.655Z,22.92
2018-05-04T17:06:56.845Z,22.87
2018-05-04T17:09:25.042Z,22.83
2018-05-04T17:11:53.993Z,22.82
2018-05-04T17:14:22.181Z,22.74
2018-05-04T17:16:50.369Z,22.72
2018-05-04T17:19:18.647Z,22.66
2018-05-04T17:21:46.831Z,22.65
2018-05-04T17:24:15.783Z,22.63
2018-05-04T17:26:43.970Z,22.60
2018-05-04T17:29:12.148Z,22.57
2018-05-04T17:31:40.338Z,22.48
2018-05-04T17:34:08.522Z,22.48
2018-05-04T17:36:37.475Z,22.44
2018-05-04T17:39:05.697Z,22.35
2018-05-04T17:41:34.748Z,22.37
2018-05-04T17:44:02.923Z,22.30
2018-05-04T17:46:31.099Z,22.27
2018-05-04T17:48:59.291Z,22.22
2018-05-04T17:51:27.461Z,22.21
2018-05-04T17:53:55.640Z,22.12
2018-05-04T17:56:24.413Z,22.08
2018-05-04T17:58:52.628Z,22.02
2018-05-04T18:01:25.302Z,21.99
2018-05-04T18:03:56.481Z,21.92
2018-05-04T18:06:25.137Z,21.88
2018-05-04T18:08:57.524Z,21.92
2018-05-04T18:11:26.493Z,21.87
2018-05-04T18:13:57.969Z,21.86
2018-05-04T18:16:27.037Z,21.85
2018-05-04T18:18:59.542Z,21.82
2018-05-04T18:21:27.732Z,21.76
2018-05-04T18:23:56.093Z,21.73
2018-05-04T18:26:25.045Z,21.76
2018-05-04T18:28:56.889Z,21.65
2018-05-04T18:31:25.441Z,21.55
2018-05-04T18:33:57.324Z,21.35
2018-05-04T18:36:25.884Z,21.26
2018-05-04T18:38:58.644Z,20.69
2018-05-04T18:41:27.199Z,20.24
2018-05-04T18:43:59.579Z,20.10
2018-05-04T18:46:27.772Z,20.16
2018-05-04T18:49:01.953Z,20.22
2018-05-04T18:51:30.139Z,20.24
2018-05-04T18:53:58.758Z,20.13
2018-05-04T18:56:26.982Z,20.05
2018-05-04T18:58:55.961Z,20.00
2018-05-04T19:01:24.150Z,19.96
2018-05-04T19:03:52.345Z,20.00
2018-05-04T19:06:20.561Z,19.98
2018-05-04T19:08:49.524Z,19.97
2018-05-04T19:11:17.710Z,20.00
2018-05-04T19:13:46.657Z,19.95
2018-05-04T19:16:14.845Z,19.91
2018-05-04T19:18:43.025Z,19.90
2018-05-04T19:21:11.209Z,19.76
2018-05-04T19:23:40.157Z,19.67
2018-05-04T19:26:08.444Z,19.69
2018-05-04T19:28:36.622Z,19.70
2018-05-04T19:31:04.804Z,19.70
2018-05-04T19:33:32.986Z,19.62
2018-05-04T19:36:01.162Z,19.55
2018-05-04T19:38:29.577Z,19.57
2018-05-04T19:40:58.541Z,19.60
2018-05-04T19:43:26.718Z,19.42
2018-05-04T19:45:54.910Z,19.41
2018-05-04T19:48:23.365Z,19.42
2018-05-04T19:50:51.536Z,19.45
2018-05-04T19:53:19.723Z,19.46
2018-05-04T19:55:47.896Z,19.47
2018-05-04T19:58:16.069Z,19.53
2018-05-04T20:00:44.259Z,19.46
2018-05-04T20:03:12.448Z,19.40
2018-05-04T20:05:41.396Z,19.37
2018-05-04T20:08:09.574Z,19.31
2018-05-04T20:10:37.750Z,19.29
2018-05-04T20:13:05.921Z,19.22
2018-05-04T20:15:34.093Z,19.22
2018-05-04T20:18:02.264Z,19.23
2018-05-04T20:20:30.445Z,19.20
2018-05-04T20:22:58.621Z,19.19
2018-05-04T20:25:26.789Z,19.27
2018-05-04T20:27:54.966Z,19.32
2018-05-04T20:30:23.170Z,19.24
2018-05-04T20:32:52.117Z,19.19
2018-05-04T20:35:20.298Z,19.22
2018-05-04T20:37:48.497Z,19.16
2018-05-04T20:40:16.685Z,19.22
2018-05-04T20:42:44.875Z,19.15
2018-05-04T20:45:13.822Z,19.17
2018-05-04T20:47:42.009Z,19.24
2018-05-04T20:50:10.220Z,19.24
2018-05-04T20:52:39.164Z,19.23
2018-05-04T20:55:07.348Z,19.14
2018-05-04T20:57:35.528Z,19.18
2018-05-04T21:00:03.706Z,19.03
2018-05-04T21:02:31.877Z,18.83
2018-05-04T21:05:00.101Z,18.40
2018-05-04T21:07:29.049Z,18.28
2018-05-04T21:09:57.236Z,18.00
2018-05-04T21:12:25.410Z,18.02
2018-05-04T21:14:53.590Z,17.97
2018-05-04T21:17:21.757Z,17.96
2018-05-04T21:19:49.939Z,18.01
2018-05-04T21:22:18.119Z,17.92
2018-05-04T21:24:46.289Z,17.90
2018-05-04T21:27:14.461Z,17.60
2018-05-04T21:29:42.676Z,17.62
2018-05-04T21:32:10.845Z,17.55
2018-05-04T21:34:39.014Z,17.33
2018-05-04T21:37:07.945Z,17.49
2018-05-04T21:39:36.225Z,17.62
2018-05-04T21:42:04.398Z,17.39
2018-05-04T21:44:32.591Z,17.34
2018-05-04T21:47:00.762Z,17.18
2018-05-04T21:49:28.928Z,17.09
2018-05-04T21:51:57.210Z,17.21
2018-05-04T21:54:26.101Z,17.37
2018-05-04T21:56:55.276Z,17.44
2018-05-04T21:59:23.456Z,17.34
2018-05-04T22:01:51.626Z,17.32
2018-05-04T22:04:19.823Z,17.34
2018-05-04T22:06:48.014Z,17.42
2018-05-04T22:09:16.190Z,17.45
2018-05-04T22:11:44.409Z,17.52
2018-05-04T22:14:12.578Z,17.49
2018-05-04T22:16:40.744Z,17.46
2018-05-04T22:19:09.710Z,17.44
2018-05-04T22:21:37.896Z,17.37
2018-05-04T22:24:06.842Z,17.39
2018-05-04T22:26:35.095Z,17.37
2018-05-04T22:29:04.006Z,17.36
2018-05-04T22:31:32.199Z,17.33
2018-05-04T22:34:00.384Z,17.20
2018-05-04T22:36:28.561Z,17.23
2018-05-04T22:38:56.748Z,17.30
2018-05-04T22:41:24.929Z,17.32
2018-05-04T22:43:53.873Z,17.41
2018-05-04T22:46:22.035Z,17.40
2018-05-04T22:48:50.200Z,17.45
2018-05-04T22:51:18.361Z,17.28
2018-05-04T22:53:47.298Z,17.19
2018-05-04T22:56:15.477Z,17.15
2018-05-04T22:58:43.657Z,17.20
2018-05-04T23:01:11.829Z,17.13
2018-05-04T23:03:39.996Z,17.07
2018-05-04T23:06:08.189Z,17.02
2018-05-04T23:08:36.365Z,17.06
2018-05-04T23:11:04.565Z,17.06
2018-05-04T23:13:33.513Z,17.08
2018-05-04T23:16:01.678Z,17.12
2018-05-04T23:18:29.856Z,17.09
2018-05-04T23:20:58.038Z,17.08
2018-05-04T23:23:26.549Z,17.16
2018-05-04T23:25:54.729Z,17.13
2018-05-04T23:28:23.673Z,17.10
2018-05-04T23:30:51.843Z,17.07
2018-05-04T23:33:20.014Z,17.01
2018-05-04T23:35:48.173Z,16.96
2018-05-04T23:38:16.353Z,16.98
2018-05-04T23:40:44.515Z,16.94
2018-05-04T23:43:13.443Z,16.91
2018-05-04T23:45:41.616Z,16.87
2018-05-04T23:48:09.786Z,16.87
2018-05-04T23:50:37.957Z,16.85
2018-05-04T23:53:06.182Z,16.92
2018-05-04T23:55:34.354Z,16.92
2018-05-04T23:58:03.304Z,16.91
